»·PEaware :: N157JL KEUG-KMRY

N157JL :: KEUG-KMRY

FLIGHT INFORMATION

Flight Status: Arrived
Operator: Privately registered:
United States
More flights under this callsign
Pilot: Anonymous 16594 (16594)
Aircraft: Unknown
(B60T)
More flights by this aircraft type
Origin: KEUG Mahlon Sweet
United States
Destination: KMRY Monterey Peninsula
United States
More flights between these airports :: More routes between these airports
Route: RBG J143 PYE J88 SNS
File this flight plan on PilotEdge
Remarks:
Altitude:
(Current/Filed)
27,000ft
Speed:
(Current/Filed)
290kts
Departed: 22-Jul-18 11:30 AM
Arrived: 22-Jul-18 01:31 PM
Distance/Time
Traveled:
456nm/2:01
Distance/Time
To Go:
Arrived

Flight Plot

Page will automatically refresh every two minutes.

Flight plan parsing failed; only flown route is shown


Map Options




Map Legend


Flown Route
Filed Route
Departure Airport
Arrival Airport
Navaid (VOR, NDB)
Fix

Horizontal Profiles

Position Reports

Time Latitude Longitude Heading Altitude Ground
Speed
22-Jul-18 11:10 44.112243 -123.214244 89 372ft 0kts
22-Jul-18 11:11 44.112243 -123.214244 89 372ft 0kts
22-Jul-18 11:12 44.112243 -123.214244 89 372ft 0kts
22-Jul-18 11:13 44.112243 -123.214244 89 372ft 0kts
22-Jul-18 11:14 44.112243 -123.214244 89 372ft 0kts
22-Jul-18 11:15 44.112243 -123.214244 89 372ft 0kts
22-Jul-18 11:16 44.112243 -123.214244 89 372ft 0kts
22-Jul-18 11:17 44.112243 -123.214244 89 372ft 0kts
22-Jul-18 11:18 44.112243 -123.214244 89 372ft 0kts
22-Jul-18 11:19 44.112243 -123.214242 89 372ft 0kts
22-Jul-18 11:20 44.112243 -123.214239 89 372ft 0kts
22-Jul-18 11:21 44.112243 -123.214234 89 372ft 0kts
22-Jul-18 11:22 44.112243 -123.214230 89 372ft 0kts
22-Jul-18 11:23 44.112243 -123.214225 89 372ft 0kts
22-Jul-18 11:24 44.112243 -123.214221 89 372ft 0kts
22-Jul-18 11:25 44.112236 -123.214619 268 372ft 1kts
22-Jul-18 11:26 44.112232 -123.214790 267 372ft 0kts
22-Jul-18 11:27 44.112232 -123.214794 267 372ft 0kts
22-Jul-18 11:28 44.112767 -123.217030 340 372ft 9kts
22-Jul-18 11:29 44.113720 -123.217854 278 372ft 0kts
22-Jul-18 11:30 44.113720 -123.217858 278 372ft 0kts
22-Jul-18 11:31 44.118545 -123.218876 359 372ft 112kts
22-Jul-18 11:32 44.155494 -123.222296 356 2868ft 139kts
22-Jul-18 11:33 44.179384 -123.255228 241 5410ft 169kts
22-Jul-18 11:34 44.133171 -123.272216 183 7970ft 185kts
22-Jul-18 11:35 44.077749 -123.277439 183 9683ft 215kts
22-Jul-18 11:36 44.016358 -123.282689 184 11163ft 224kts
22-Jul-18 11:37 43.956765 -123.287695 186 13398ft 203kts
22-Jul-18 11:38 43.901786 -123.292321 187 15886ft 193kts
22-Jul-18 11:39 43.848746 -123.296773 188 18375ft 188kts
22-Jul-18 11:40 43.797074 -123.301099 189 20866ft 182kts
22-Jul-18 11:41 43.747931 -123.305208 190 23250ft 176kts
22-Jul-18 11:42 43.696787 -123.309537 190 25092ft 190kts
22-Jul-18 11:43 43.643020 -123.314023 190 26901ft 195kts
22-Jul-18 11:44 43.582814 -123.319160 189 27210ft 235kts
22-Jul-18 11:45 43.514256 -123.324851 188 27205ft 259kts
22-Jul-18 11:46 43.440300 -123.330950 188 27201ft 270kts
22-Jul-18 11:47 43.364796 -123.337177 188 27200ft 272kts
22-Jul-18 11:48 43.289278 -123.343404 188 27199ft 272kts
22-Jul-18 11:49 43.213448 -123.349647 188 27199ft 273kts
22-Jul-18 11:50 43.137398 -123.352769 183 27201ft 275kts
22-Jul-18 11:51 43.060923 -123.349997 183 27209ft 274kts
22-Jul-18 11:52 42.984589 -123.348262 183 27222ft 274kts
22-Jul-18 11:53 42.908293 -123.346704 183 27241ft 274kts
22-Jul-18 11:54 42.832085 -123.345183 183 27263ft 273kts
22-Jul-18 11:55 42.756155 -123.343675 183 27283ft 273kts
22-Jul-18 11:56 42.680011 -123.342167 183 27299ft 273kts
22-Jul-18 11:57 42.603789 -123.340659 183 27307ft 273kts
22-Jul-18 11:58 42.527631 -123.339161 183 27305ft 274kts
22-Jul-18 11:59 42.451298 -123.337660 183 27290ft 274kts
22-Jul-18 12:00 42.374761 -123.336159 183 27269ft 275kts
22-Jul-18 12:01 42.298114 -123.334657 183 27251ft 275kts
22-Jul-18 12:02 42.221388 -123.333158 182 27239ft 275kts
22-Jul-18 12:03 42.144787 -123.331668 182 27232ft 275kts
22-Jul-18 12:04 42.068197 -123.330180 182 27230ft 275kts
22-Jul-18 12:05 41.991660 -123.328699 182 27228ft 275kts
22-Jul-18 12:06 41.915030 -123.327216 182 27226ft 274kts
22-Jul-18 12:07 41.838786 -123.325745 182 27225ft 274kts
22-Jul-18 12:08 41.762367 -123.324274 182 27224ft 274kts
22-Jul-18 12:09 41.685984 -123.322807 182 27201ft 275kts
22-Jul-18 12:10 41.609628 -123.321345 182 27204ft 274kts
22-Jul-18 12:11 41.533242 -123.319887 182 27205ft 273kts
22-Jul-18 12:12 41.457110 -123.318437 182 27204ft 273kts
22-Jul-18 12:13 41.381146 -123.316995 182 27203ft 273kts
22-Jul-18 12:14 41.304952 -123.315548 182 27202ft 273kts
22-Jul-18 12:15 41.228793 -123.314105 182 27202ft 273kts
22-Jul-18 12:16 41.152896 -123.312669 182 27210ft 272kts
22-Jul-18 12:17 41.077034 -123.311239 182 27207ft 272kts
22-Jul-18 12:18 41.001472 -123.309819 182 27204ft 272kts
22-Jul-18 12:19 40.925491 -123.308394 181 27200ft 272kts
22-Jul-18 12:20 40.849991 -123.306984 181 27198ft 272kts
22-Jul-18 12:21 40.774236 -123.305568 181 27196ft 272kts
22-Jul-18 12:22 40.698571 -123.304160 181 27181ft 272kts
22-Jul-18 12:23 40.622806 -123.302749 181 27178ft 271kts
22-Jul-18 12:24 40.547393 -123.301353 181 27170ft 271kts
22-Jul-18 12:25 40.471916 -123.299956 181 27169ft 271kts
22-Jul-18 12:26 40.396678 -123.298568 181 27167ft 270kts
22-Jul-18 12:27 40.321145 -123.297178 181 27164ft 270kts
22-Jul-18 12:28 40.246008 -123.295797 181 27161ft 270kts
22-Jul-18 12:29 40.170765 -123.294417 181 27158ft 270kts
22-Jul-18 12:30 40.095587 -123.293043 181 27169ft 270kts
22-Jul-18 12:31 40.021862 -123.291698 181 27166ft 270kts
22-Jul-18 12:32 39.946842 -123.290337 181 27162ft 270kts
22-Jul-18 12:33 39.871801 -123.288969 181 27157ft 269kts
22-Jul-18 12:34 39.796747 -123.287609 181 27151ft 269kts
22-Jul-18 12:35 39.721733 -123.286251 181 27146ft 269kts
22-Jul-18 12:36 39.646552 -123.284895 180 27129ft 270kts
22-Jul-18 12:37 39.571477 -123.283542 180 27122ft 270kts
22-Jul-18 12:38 39.496403 -123.282192 180 27121ft 270kts
22-Jul-18 12:39 39.421169 -123.280842 180 27120ft 269kts
22-Jul-18 12:40 39.346252 -123.279503 180 27119ft 269kts
22-Jul-18 12:41 39.271251 -123.278163 180 27119ft 269kts
22-Jul-18 12:42 39.196353 -123.276828 180 27119ft 269kts
22-Jul-18 12:43 39.121171 -123.275491 180 27119ft 269kts
22-Jul-18 12:44 39.046560 -123.272139 169 27118ft 271kts
22-Jul-18 12:45 38.974708 -123.241225 164 27120ft 272kts
22-Jul-18 12:46 38.902759 -123.210674 164 27122ft 272kts
22-Jul-18 12:47 38.830669 -123.180278 164 27123ft 272kts
22-Jul-18 12:48 38.758636 -123.149990 164 27126ft 272kts
22-Jul-18 12:49 38.686724 -123.119825 164 27130ft 272kts
22-Jul-18 12:50 38.614674 -123.089666 164 27133ft 272kts
22-Jul-18 12:51 38.542632 -123.059573 164 27135ft 272kts
22-Jul-18 12:52 38.470508 -123.029512 164 27139ft 272kts
22-Jul-18 12:53 38.398595 -122.999601 164 27141ft 272kts
22-Jul-18 12:54 38.326451 -122.969656 164 27143ft 272kts
22-Jul-18 12:55 38.254448 -122.939833 164 27146ft 272kts
22-Jul-18 12:56 38.182293 -122.910009 164 27137ft 272kts
22-Jul-18 12:57 38.110232 -122.880285 164 27160ft 272kts
22-Jul-18 12:58 38.043530 -122.835070 147 27151ft 277kts
22-Jul-18 12:59 37.982176 -122.778572 147 26571ft 245kts
22-Jul-18 13:00 37.930687 -122.731690 147 24442ft 227kts
22-Jul-18 13:01 37.877856 -122.683695 147 21957ft 236kts
22-Jul-18 13:02 37.835259 -122.644962 147 20948ft 208kts
22-Jul-18 13:03 37.788650 -122.602743 147 20167ft 203kts
22-Jul-18 13:04 37.727519 -122.547488 146 20163ft 248kts
22-Jul-18 13:05 37.673151 -122.498354 147 20169ft 245kts
22-Jul-18 13:06 37.618730 -122.449277 147 18849ft 229kts
22-Jul-18 13:07 37.574995 -122.409980 146 16956ft 234kts
22-Jul-18 13:08 37.521764 -122.362177 146 14651ft 234kts
22-Jul-18 13:09 37.468673 -122.314573 145 12355ft 235kts
22-Jul-18 13:10 37.421448 -122.272295 145 10121ft 205kts
22-Jul-18 13:11 37.373774 -122.229665 145 9994ft 216kts
22-Jul-18 13:12 37.324917 -122.186058 145 9993ft 215kts
22-Jul-18 13:13 37.275916 -122.142410 145 9993ft 215kts
22-Jul-18 13:14 37.227060 -122.098956 145 9996ft 215kts
22-Jul-18 13:15 37.181237 -122.058277 145 8764ft 180kts
22-Jul-18 13:16 37.141089 -122.022710 145 7314ft 179kts
22-Jul-18 13:17 37.100029 -121.986361 144 6064ft 176kts
22-Jul-18 13:18 37.056989 -121.948297 145 5980ft 199kts
22-Jul-18 13:19 37.011432 -121.908064 144 5983ft 200kts
22-Jul-18 13:20 36.965887 -121.867909 144 5991ft 200kts
22-Jul-18 13:21 36.920038 -121.827543 144 6001ft 201kts
22-Jul-18 13:22 36.873691 -121.786813 144 5997ft 202kts
22-Jul-18 13:23 36.825490 -121.752048 175 6012ft 200kts
22-Jul-18 13:24 36.771178 -121.762531 188 5218ft 171kts
22-Jul-18 13:25 36.734261 -121.769104 189 3791ft 130kts
22-Jul-18 13:26 36.699716 -121.777239 193 3103ft 119kts
22-Jul-18 13:27 36.666967 -121.785172 195 2369ft 120kts
22-Jul-18 13:28 36.633937 -121.793977 195 1955ft 123kts
22-Jul-18 13:29 36.603923 -121.800039 194 1469ft 101kts
22-Jul-18 13:30 36.581378 -121.816214 247 686ft 83kts
22-Jul-18 13:31 36.585316 -121.839497 293 260ft 49kts
22-Jul-18 13:32 36.586781 -121.845774 195 260ft 1kts
22-Jul-18 13:33 36.586630 -121.846540 291 260ft 5kts
22-Jul-18 13:34 36.587608 -121.849350 293 260ft 9kts
22-Jul-18 13:35 36.587752 -121.851722 201 260ft 0kts
22-Jul-18 13:36 36.587752 -121.851722 201 260ft 0kts
22-Jul-18 13:37 36.587752 -121.851722 201 260ft 0kts
22-Jul-18 13:38 36.587752 -121.851722 201 260ft 0kts
22-Jul-18 13:39 36.587752 -121.851722 201 260ft 0kts
22-Jul-18 13:40 36.587752 -121.851722 201 260ft 0kts
22-Jul-18 13:41 36.587752 -121.851722 201 260ft 0kts
22-Jul-18 13:42 36.587752 -121.851722 201 260ft 0kts
22-Jul-18 13:43 36.587752 -121.851722 201 260ft 0kts
22-Jul-18 13:44 36.587752 -121.851722 201 260ft 0kts
22-Jul-18 13:45 36.587752 -121.851722 201 260ft 0kts
22-Jul-18 13:46 36.587752 -121.851722 201 260ft 0kts

Navigation Log

Ident Type
Flight plan parsing failed, navigation log unavailable